createdAt,value
2018-10-05T00:01:24.437Z,12.77
2018-10-05T00:03:54.994Z,12.30
2018-10-05T00:06:25.890Z,11.97
2018-10-05T00:08:55.824Z,12.63
2018-10-05T00:11:26.000Z,12.77
2018-10-05T00:13:55.870Z,11.50
2018-10-05T00:16:26.498Z,12.50
2018-10-05T00:18:56.319Z,13.83
2018-10-05T00:21:26.208Z,11.80
2018-10-05T00:23:56.000Z,11.73
2018-10-05T00:26:26.188Z,11.43
2018-10-05T00:28:56.093Z,12.07
2018-10-05T00:31:25.888Z,11.00
2018-10-05T00:33:56.298Z,11.07
2018-10-05T00:36:26.276Z,9.23
2018-10-05T00:38:56.285Z,9.77
2018-10-05T00:41:26.084Z,10.13
2018-10-05T00:43:55.881Z,9.03
2018-10-05T00:46:25.944Z,10.33
2018-10-05T00:48:56.020Z,10.33
2018-10-05T00:51:26.423Z,10.87
2018-10-05T00:53:56.338Z,9.90
2018-10-05T00:56:26.593Z,9.77
2018-10-05T00:58:56.853Z,9.93
2018-10-05T01:01:26.945Z,10.20
2018-10-05T01:03:56.812Z,9.60
2018-10-05T01:06:26.691Z,9.93
2018-10-05T01:08:57.183Z,9.70
2018-10-05T01:11:27.143Z,10.33
2018-10-05T01:13:57.548Z,9.60
2018-10-05T01:16:27.412Z,10.40
2018-10-05T01:18:57.334Z,10.53
2018-10-05T01:21:27.133Z,10.60
2018-10-05T01:23:57.972Z,9.30
2018-10-05T01:26:28.204Z,9.93
2018-10-05T01:28:58.229Z,9.43
2018-10-05T01:31:28.343Z,10.07
2018-10-05T01:33:58.660Z,10.37
2018-10-05T01:36:28.708Z,10.70
2018-10-05T01:38:59.359Z,9.67
2018-10-05T01:41:29.020Z,9.87
2018-10-05T01:43:58.809Z,10.23
2018-10-05T01:46:28.613Z,10.10
2018-10-05T01:48:58.823Z,10.13
2018-10-05T01:51:36.089Z,10.23
2018-10-05T01:54:12.734Z,9.77
2018-10-05T01:56:43.182Z,9.87
2018-10-05T01:59:13.129Z,9.63
2018-10-05T02:01:42.823Z,10.00
2018-10-05T02:04:12.620Z,10.67
2018-10-05T02:06:42.983Z,9.93
2018-10-05T02:09:12.737Z,11.60
2018-10-05T02:11:42.474Z,9.73
2018-10-05T02:14:12.382Z,10.43
2018-10-05T02:16:42.349Z,11.03
2018-10-05T02:19:12.793Z,10.70
2018-10-05T02:21:43.248Z,10.40
2018-10-05T02:24:14.449Z,10.20
2018-10-05T02:26:44.413Z,9.40
2018-10-05T02:29:14.200Z,10.17
2018-10-05T02:31:43.948Z,10.50
2018-10-05T02:34:14.099Z,10.17
2018-10-05T02:36:43.892Z,10.23
2018-10-05T02:39:14.489Z,10.50
2018-10-05T02:41:44.690Z,10.33
2018-10-05T02:44:14.506Z,10.47
2018-10-05T02:46:44.208Z,11.10
2018-10-05T02:49:14.274Z,10.60
2018-10-05T02:51:44.105Z,10.47
2018-10-05T02:54:13.883Z,10.33
2018-10-05T02:56:43.952Z,10.27
2018-10-05T02:59:14.058Z,10.33
2018-10-05T03:02:00.869Z,10.30
2018-10-05T03:04:30.986Z,9.87
2018-10-05T03:07:00.753Z,10.13
2018-10-05T03:09:31.313Z,11.27
2018-10-05T03:12:01.755Z,10.67
2018-10-05T03:14:31.805Z,11.13
2018-10-05T03:17:01.691Z,10.63
2018-10-05T03:19:31.497Z,11.00
2018-10-05T03:22:02.577Z,10.50
2018-10-05T03:24:32.557Z,11.03
2018-10-05T03:27:02.354Z,12.00
2018-10-05T03:29:32.954Z,10.93
2018-10-05T03:32:02.786Z,11.97
2018-10-05T03:34:33.598Z,11.77
2018-10-05T03:37:04.789Z,11.20
2018-10-05T03:39:34.684Z,12.87
2018-10-05T03:42:05.016Z,11.87
2018-10-05T03:44:35.371Z,12.03
2018-10-05T03:47:06.026Z,12.60
2018-10-05T03:49:35.810Z,12.27
2018-10-05T03:52:06.079Z,13.10
2018-10-05T03:54:35.964Z,13.20
2018-10-05T03:57:08.127Z,12.80
2018-10-05T03:59:37.937Z,13.27
2018-10-05T04:02:08.054Z,13.87
2018-10-05T04:04:37.902Z,14.43
2018-10-05T04:07:08.103Z,14.83
2018-10-05T04:09:38.580Z,14.03
2018-10-05T04:12:08.510Z,14.50
2018-10-05T04:14:39.144Z,15.10
2018-10-05T04:17:09.796Z,15.70
2018-10-05T04:19:40.032Z,16.67
2018-10-05T04:22:10.423Z,15.10
2018-10-05T04:24:40.359Z,15.43
2018-10-05T04:27:10.357Z,15.30
2018-10-05T04:29:40.562Z,14.97
2018-10-05T04:32:11.229Z,15.53
2018-10-05T04:34:41.101Z,16.73
2018-10-05T04:37:11.010Z,16.47
2018-10-05T04:39:41.523Z,15.87
2018-10-05T04:42:11.884Z,16.83
2018-10-05T04:44:41.732Z,16.97
2018-10-05T04:47:11.836Z,16.37
2018-10-05T04:49:41.764Z,16.10
2018-10-05T04:52:11.561Z,16.47
2018-10-05T04:54:41.532Z,15.47
2018-10-05T04:57:11.379Z,16.03
2018-10-05T04:59:41.122Z,16.63
2018-10-05T05:02:10.898Z,16.77
2018-10-05T05:04:40.713Z,15.87
2018-10-05T05:07:11.583Z,16.57
2018-10-05T05:09:41.380Z,15.87
2018-10-05T05:12:11.356Z,15.93
2018-10-05T05:14:41.341Z,16.50
2018-10-05T05:17:11.298Z,16.73
2018-10-05T05:19:41.190Z,16.60
2018-10-05T05:22:10.891Z,17.40
2018-10-05T05:24:40.655Z,16.47
2018-10-05T05:27:10.384Z,17.13
2018-10-05T05:29:40.414Z,16.83
2018-10-05T05:32:10.851Z,15.97
2018-10-05T05:34:40.784Z,15.93
2018-10-05T05:37:10.716Z,16.80
2018-10-05T05:39:40.564Z,15.93
2018-10-05T05:42:10.428Z,16.70
2018-10-05T05:44:40.786Z,16.77
2018-10-05T05:47:10.844Z,16.10
2018-10-05T05:49:40.708Z,16.00
2018-10-05T05:52:11.248Z,15.90
2018-10-05T05:54:41.196Z,15.80
2018-10-05T05:57:11.773Z,14.73
2018-10-05T05:59:41.918Z,15.17
2018-10-05T06:02:13.234Z,15.67
2018-10-05T06:04:44.363Z,14.90
2018-10-05T06:07:15.478Z,15.10
2018-10-05T06:09:45.838Z,14.07
2018-10-05T06:12:16.661Z,14.73
2018-10-05T06:14:47.095Z,14.90
2018-10-05T06:17:17.267Z,14.73
2018-10-05T06:19:47.388Z,13.70
2018-10-05T06:22:17.772Z,14.67
2018-10-05T06:24:47.602Z,14.40
2018-10-05T06:27:17.889Z,13.73
2018-10-05T06:29:47.819Z,14.73
2018-10-05T06:32:17.660Z,14.50
2018-10-05T06:34:47.563Z,14.13
2018-10-05T06:37:17.687Z,14.70
2018-10-05T06:39:47.504Z,13.77
2018-10-05T06:42:18.202Z,14.13
2018-10-05T06:44:48.036Z,13.90
2018-10-05T06:47:18.607Z,14.10
2018-10-05T06:49:48.657Z,13.73
2018-10-05T06:52:19.005Z,13.37
2018-10-05T06:54:49.180Z,12.80
2018-10-05T06:57:19.206Z,13.80
2018-10-05T06:59:49.163Z,13.43
2018-10-05T07:02:19.613Z,14.60
2018-10-05T07:04:50.045Z,14.20
2018-10-05T07:07:20.012Z,14.10
2018-10-05T07:09:50.416Z,14.63
2018-10-05T07:12:20.568Z,14.00
2018-10-05T07:14:50.677Z,14.37
2018-10-05T07:17:20.742Z,13.73
2018-10-05T07:19:51.217Z,14.27
2018-10-05T07:22:22.290Z,14.33
2018-10-05T07:24:52.576Z,13.70
2018-10-05T07:27:22.557Z,14.30
2018-10-05T07:29:53.053Z,14.50
2018-10-05T07:32:23.767Z,13.67
2018-10-05T07:34:54.253Z,12.43
2018-10-05T07:37:24.169Z,13.60
2018-10-05T07:39:54.560Z,13.00
2018-10-05T07:42:24.989Z,14.60
2018-10-05T07:44:55.053Z,13.53
2018-10-05T07:47:25.090Z,13.87
2018-10-05T07:49:55.321Z,14.10
2018-10-05T07:52:25.951Z,14.27
2018-10-05T07:54:55.791Z,14.07
2018-10-05T07:57:25.683Z,14.27
2018-10-05T07:59:56.160Z,12.87
2018-10-05T08:02:25.997Z,12.50
2018-10-05T08:04:55.802Z,13.63
2018-10-05T08:07:26.294Z,12.60
2018-10-05T08:09:56.251Z,12.37
2018-10-05T08:12:26.612Z,12.43
2018-10-05T08:14:57.366Z,12.23
2018-10-05T08:17:27.453Z,12.83
2018-10-05T08:19:57.889Z,12.63
2018-10-05T08:22:27.792Z,12.10
2018-10-05T08:24:58.323Z,11.17
2018-10-05T08:27:29.152Z,11.67
2018-10-05T08:29:59.660Z,11.03
2018-10-05T08:32:29.731Z,10.33
2018-10-05T08:34:59.813Z,10.73
2018-10-05T08:37:30.374Z,11.23
2018-10-05T08:40:00.386Z,10.67
2018-10-05T08:42:30.276Z,10.80
2018-10-05T08:45:00.865Z,10.40
2018-10-05T08:47:31.045Z,10.03
2018-10-05T08:50:01.151Z,10.10
2018-10-05T08:52:31.426Z,9.70
2018-10-05T08:55:01.465Z,9.40
2018-10-05T08:57:31.758Z,9.80
2018-10-05T09:00:01.913Z,10.03
2018-10-05T09:02:31.689Z,9.37
2018-10-05T09:05:01.571Z,9.33
2018-10-05T09:07:31.759Z,9.33
2018-10-05T09:10:01.637Z,9.30
2018-10-05T09:12:33.047Z,9.10
2018-10-05T09:15:03.523Z,9.13
2018-10-05T09:17:33.397Z,9.40
2018-10-05T09:20:03.335Z,8.27
2018-10-05T09:22:33.576Z,8.43
2018-10-05T09:25:03.401Z,8.87
2018-10-05T09:27:33.259Z,8.60
2018-10-05T09:30:03.193Z,7.90
2018-10-05T09:32:33.563Z,8.60
2018-10-05T09:35:03.507Z,8.17
2018-10-05T09:37:33.525Z,8.23
2018-10-05T09:40:03.279Z,8.17
2018-10-05T09:42:33.269Z,7.17
2018-10-05T09:45:03.142Z,7.10
2018-10-05T09:47:32.895Z,7.70
2018-10-05T09:50:03.367Z,6.90
2018-10-05T09:52:33.333Z,6.80
2018-10-05T09:55:03.166Z,6.60
2018-10-05T09:57:33.099Z,6.63
2018-10-05T10:00:03.797Z,6.53
2018-10-05T10:02:38.637Z,7.03
2018-10-05T10:05:08.604Z,6.03
2018-10-05T10:07:39.039Z,6.27
2018-10-05T10:10:09.280Z,6.13
2018-10-05T10:12:39.969Z,6.43
2018-10-05T10:15:09.935Z,5.80
2018-10-05T10:17:39.861Z,5.97
2018-10-05T10:20:10.059Z,5.27
2018-10-05T10:22:40.189Z,5.67
2018-10-05T10:25:10.489Z,5.90
2018-10-05T10:27:40.824Z,5.63
2018-10-05T10:30:10.804Z,4.87
2018-10-05T10:32:40.719Z,4.33
2018-10-05T10:35:10.549Z,4.80
2018-10-05T10:37:41.685Z,4.90
2018-10-05T10:40:12.303Z,5.00
2018-10-05T10:42:42.212Z,4.73
2018-10-05T10:45:12.012Z,4.40
2018-10-05T10:47:42.456Z,4.60
2018-10-05T10:50:12.387Z,4.70
2018-10-05T10:52:42.839Z,4.70
2018-10-05T10:55:14.001Z,4.73
2018-10-05T10:57:43.962Z,4.37
2018-10-05T11:00:14.231Z,4.53
2018-10-05T11:02:44.762Z,4.03
2018-10-05T11:05:14.630Z,4.60
2018-10-05T11:07:44.967Z,3.87
2018-10-05T11:10:14.931Z,4.20
2018-10-05T11:12:44.684Z,4.03
2018-10-05T11:15:14.729Z,4.17
2018-10-05T11:17:44.618Z,4.40
2018-10-05T11:20:14.382Z,5.40
2018-10-05T11:22:44.960Z,4.70
2018-10-05T11:25:15.410Z,4.90
2018-10-05T11:27:46.496Z,4.80
2018-10-05T11:30:16.570Z,4.40
2018-10-05T11:32:46.990Z,4.10
2018-10-05T11:35:18.250Z,4.50
2018-10-05T11:37:49.132Z,4.37
2018-10-05T11:40:18.968Z,4.63
2018-10-05T11:42:48.843Z,4.43
2018-10-05T11:45:18.850Z,4.13
2018-10-05T11:47:48.994Z,4.50
2018-10-05T11:50:19.206Z,4.10
2018-10-05T11:52:49.149Z,3.70
2018-10-05T11:55:19.161Z,3.97
2018-10-05T11:57:48.955Z,3.87
2018-10-05T12:00:19.820Z,3.93
2018-10-05T12:02:50.261Z,3.90
2018-10-05T12:05:20.333Z,3.73
2018-10-05T12:07:50.523Z,3.20
2018-10-05T12:10:20.835Z,4.27
2018-10-05T12:12:50.702Z,3.60
2018-10-05T12:15:21.304Z,3.70
2018-10-05T12:17:52.403Z,3.60
2018-10-05T12:20:23.489Z,3.43
2018-10-05T12:22:53.415Z,3.67
2018-10-05T12:25:23.919Z,3.83
2018-10-05T12:27:53.921Z,3.33
2018-10-05T12:30:24.498Z,3.00
2018-10-05T12:32:54.430Z,3.00
2018-10-05T12:35:24.177Z,3.40
2018-10-05T12:37:54.160Z,3.60
2018-10-05T12:40:24.087Z,3.17
2018-10-05T12:42:53.941Z,3.20
2018-10-05T12:45:24.615Z,3.00
2018-10-05T12:47:54.998Z,2.97
2018-10-05T12:50:24.805Z,3.10
2018-10-05T12:52:54.917Z,3.03
2018-10-05T12:55:24.790Z,2.77
2018-10-05T12:57:55.300Z,2.90
2018-10-05T13:00:25.221Z,3.10
2018-10-05T13:02:54.995Z,2.73
2018-10-05T13:05:25.054Z,2.70
2018-10-05T13:07:55.474Z,3.07
2018-10-05T13:10:26.226Z,2.80
2018-10-05T13:12:56.143Z,2.23
2018-10-05T13:15:26.828Z,2.90
2018-10-05T13:17:56.650Z,2.80
2018-10-05T13:20:26.556Z,2.20
2018-10-05T13:22:56.364Z,2.27
2018-10-05T13:25:26.741Z,1.97
2018-10-05T13:27:56.571Z,2.47
2018-10-05T13:30:27.090Z,2.03
2018-10-05T13:32:57.205Z,2.17
2018-10-05T13:35:26.993Z,1.80
2018-10-05T13:37:57.457Z,1.73
2018-10-05T13:40:27.938Z,1.87
2018-10-05T13:42:57.899Z,2.33
2018-10-05T13:45:27.763Z,2.20
2018-10-05T13:47:57.629Z,2.37
2018-10-05T13:50:27.539Z,2.57
2018-10-05T13:52:57.703Z,2.30
2018-10-05T13:55:28.297Z,2.03
2018-10-05T13:57:58.143Z,2.10
2018-10-05T14:00:28.009Z,2.13
2018-10-05T14:02:57.823Z,2.33
2018-10-05T14:05:28.276Z,1.87
2018-10-05T14:07:58.288Z,1.70
2018-10-05T14:10:28.165Z,2.27
2018-10-05T14:12:58.358Z,2.30
2018-10-05T14:15:28.709Z,2.00
2018-10-05T14:17:58.717Z,2.00
2018-10-05T14:20:28.710Z,2.23
2018-10-05T14:22:58.529Z,2.03
2018-10-05T14:25:28.405Z,2.27
2018-10-05T14:27:58.695Z,2.40
2018-10-05T14:30:28.885Z,2.27
2018-10-05T14:32:58.763Z,2.30
2018-10-05T14:35:28.642Z,2.23
2018-10-05T14:37:58.699Z,2.70
2018-10-05T14:40:29.260Z,2.33
2018-10-05T14:42:59.169Z,2.40
2018-10-05T14:45:28.957Z,2.83
2018-10-05T14:47:59.398Z,2.60
2018-10-05T14:50:29.866Z,3.63
2018-10-05T14:52:59.784Z,2.97
2018-10-05T14:55:30.799Z,3.07
2018-10-05T14:58:00.862Z,2.40
2018-10-05T15:00:31.538Z,2.10
2018-10-05T15:03:02.176Z,2.30
2018-10-05T15:05:32.579Z,2.70
2018-10-05T15:08:02.732Z,2.50
2018-10-05T15:10:32.499Z,2.47
2018-10-05T15:13:03.103Z,2.37
2018-10-05T15:15:32.913Z,2.63
2018-10-05T15:18:02.807Z,2.27
2018-10-05T15:20:32.829Z,2.33
2018-10-05T15:23:02.823Z,2.20
2018-10-05T15:25:32.975Z,2.37
2018-10-05T15:28:04.513Z,2.30
2018-10-05T15:30:34.527Z,2.37
2018-10-05T15:33:04.434Z,2.57
2018-10-05T15:35:35.188Z,2.23
2018-10-05T15:38:05.056Z,2.30
2018-10-05T15:40:35.069Z,2.27
2018-10-05T15:43:05.017Z,2.43
2018-10-05T15:45:35.601Z,2.60
2018-10-05T15:48:06.148Z,3.23
2018-10-05T15:50:36.010Z,2.93
2018-10-05T15:53:06.408Z,3.00
2018-10-05T15:55:36.272Z,6.93
2018-10-05T15:58:07.265Z,3.93
2018-10-05T16:00:37.917Z,2.63
2018-10-05T16:03:07.904Z,3.03
2018-10-05T16:05:38.543Z,2.47
2018-10-05T16:08:09.490Z,2.70
2018-10-05T16:10:39.516Z,2.70
2018-10-05T16:13:09.982Z,2.30
2018-10-05T16:15:39.983Z,3.30
2018-10-05T16:18:09.809Z,2.97
2018-10-05T16:20:39.618Z,3.60
2018-10-05T16:23:10.497Z,4.00
2018-10-05T16:25:40.393Z,3.93
2018-10-05T16:28:11.003Z,3.53
2018-10-05T16:30:41.069Z,3.30
2018-10-05T16:33:11.647Z,3.43
2018-10-05T16:35:41.556Z,2.87
2018-10-05T16:38:11.529Z,4.00
2018-10-05T16:40:41.981Z,3.80
2018-10-05T16:43:12.128Z,5.50
2018-10-05T16:45:42.043Z,9.43
2018-10-05T16:48:12.445Z,4.00
2018-10-05T16:50:42.321Z,4.10
2018-10-05T16:53:12.185Z,3.60
2018-10-05T16:55:42.514Z,3.40
2018-10-05T16:58:12.515Z,4.37
2018-10-05T17:00:42.697Z,5.00
2018-10-05T17:03:14.013Z,3.90
2018-10-05T17:05:44.860Z,3.83
2018-10-05T17:08:14.936Z,4.03
2018-10-05T17:10:45.239Z,3.90
2018-10-05T17:13:15.994Z,3.37
2018-10-05T17:15:46.338Z,3.70
2018-10-05T17:18:16.336Z,3.60
2018-10-05T17:20:47.056Z,4.07
2018-10-05T17:23:16.994Z,3.40
2018-10-05T17:25:47.506Z,3.57
2018-10-05T17:28:17.557Z,3.77
2018-10-05T17:30:47.774Z,3.87
2018-10-05T17:33:17.972Z,3.53
2018-10-05T17:35:47.865Z,3.27
2018-10-05T17:38:18.426Z,3.37
2018-10-05T17:40:48.677Z,3.27
2018-10-05T17:43:18.529Z,3.30
2018-10-05T17:45:49.145Z,3.93
2018-10-05T17:48:19.188Z,4.17
2018-10-05T17:50:49.068Z,3.87
2018-10-05T17:53:18.918Z,4.67
2018-10-05T17:55:48.849Z,8.87
2018-10-05T17:58:19.047Z,4.70
2018-10-05T18:00:49.125Z,4.97
2018-10-05T18:03:19.082Z,4.70
2018-10-05T18:05:49.489Z,4.40
2018-10-05T18:08:20.021Z,4.53
2018-10-05T18:10:50.626Z,4.40
2018-10-05T18:13:20.538Z,2.90
2018-10-05T18:15:51.368Z,3.40
2018-10-05T18:18:21.711Z,3.20
2018-10-05T18:20:52.885Z,2.73
2018-10-05T18:23:23.509Z,2.53
2018-10-05T18:25:53.424Z,2.50
2018-10-05T18:28:23.352Z,3.17
2018-10-05T18:30:53.305Z,2.40
2018-10-05T18:33:23.932Z,2.40
2018-10-05T18:35:54.181Z,2.37
2018-10-05T18:38:25.202Z,2.67
2018-10-05T18:40:55.338Z,2.40
2018-10-05T18:43:25.617Z,2.20
2018-10-05T18:45:55.847Z,2.30
2018-10-05T18:48:25.809Z,2.17
2018-10-05T18:50:56.054Z,2.60
2018-10-05T18:53:25.982Z,1.83
2018-10-05T18:57:01.578Z,2.10
2018-10-05T18:59:31.942Z,2.43
2018-10-05T19:02:02.182Z,2.50
2018-10-05T19:04:32.153Z,2.30
2018-10-05T19:07:02.589Z,3.00
2018-10-05T19:09:32.916Z,2.70
2018-10-05T19:12:03.997Z,3.33
2018-10-05T19:14:34.178Z,2.40
2018-10-05T19:17:04.184Z,2.17
2018-10-05T19:19:34.820Z,2.23
2018-10-05T19:22:05.833Z,2.47
2018-10-05T19:24:36.099Z,2.60
2018-10-05T19:27:07.730Z,2.30
2018-10-05T19:29:38.204Z,2.10
2018-10-05T19:32:08.822Z,2.50
2018-10-05T19:34:38.818Z,2.27
2018-10-05T19:37:09.820Z,2.30
2018-10-05T19:39:40.238Z,2.57
2018-10-05T19:42:11.714Z,2.47
2018-10-05T19:44:42.287Z,2.40
2018-10-05T19:47:12.686Z,2.67
2018-10-05T19:49:42.687Z,2.80
2018-10-05T19:52:13.991Z,2.67
2018-10-05T19:54:44.076Z,2.40
2018-10-05T19:57:14.296Z,2.20
2018-10-05T19:59:44.614Z,2.40
2018-10-05T20:02:14.576Z,2.60
2018-10-05T20:04:44.540Z,2.53
2018-10-05T20:07:14.809Z,2.90
2018-10-05T20:09:44.889Z,2.10
2018-10-05T20:12:15.745Z,2.30
2018-10-05T20:14:46.591Z,2.30
2018-10-05T20:17:16.984Z,2.03
2018-10-05T20:19:47.380Z,2.47
2018-10-05T20:22:18.428Z,2.50
2018-10-05T20:24:48.604Z,2.80
2018-10-05T20:27:18.542Z,3.00
2018-10-05T20:29:48.511Z,6.07
2018-10-05T20:32:19.102Z,4.50
2018-10-05T20:34:49.185Z,5.60
2018-10-05T20:37:19.563Z,3.47
2018-10-05T20:39:49.550Z,3.40
2018-10-05T20:42:19.471Z,3.17
2018-10-05T20:44:49.308Z,3.40
2018-10-05T20:47:19.303Z,3.33
2018-10-05T20:49:49.299Z,4.17
2018-10-05T20:52:19.292Z,3.40
2018-10-05T20:54:50.103Z,3.90
2018-10-05T20:57:20.149Z,3.20
2018-10-05T20:59:50.156Z,3.20
2018-10-05T21:02:20.357Z,2.57
2018-10-05T21:04:50.593Z,3.10
2018-10-05T21:07:20.757Z,3.70
2018-10-05T21:09:51.150Z,3.10
2018-10-05T21:12:21.176Z,3.50
2018-10-05T21:14:51.195Z,3.57
2018-10-05T21:17:21.208Z,4.07
2018-10-05T21:19:51.168Z,3.77
2018-10-05T21:22:21.048Z,4.00
2018-10-05T21:24:51.140Z,4.27
2018-10-05T21:27:21.064Z,6.00
2018-10-05T21:29:51.819Z,4.90
2018-10-05T21:32:22.644Z,20.70
2018-10-05T21:34:52.660Z,6.17
2018-10-05T21:37:22.522Z,5.40
2018-10-05T21:39:52.420Z,5.20
2018-10-05T21:42:22.570Z,4.40
2018-10-05T21:44:52.694Z,4.80
2018-10-05T21:47:22.620Z,4.80
2018-10-05T21:49:53.120Z,4.70
2018-10-05T21:52:23.701Z,4.37
2018-10-05T21:54:54.467Z,4.57
2018-10-05T21:57:24.641Z,5.10
2018-10-05T21:59:55.026Z,4.40
2018-10-05T22:02:29.273Z,4.67
2018-10-05T22:04:59.311Z,4.37
2018-10-05T22:07:29.593Z,4.93
2018-10-05T22:10:00.704Z,4.87
2018-10-05T22:12:31.309Z,4.70
2018-10-05T22:15:01.565Z,4.50
2018-10-05T22:17:34.587Z,4.37
2018-10-05T22:20:05.389Z,4.80
2018-10-05T22:22:35.622Z,4.90
2018-10-05T22:25:06.325Z,5.43
2018-10-05T22:27:36.746Z,4.83
2018-10-05T22:30:07.655Z,4.60
2018-10-05T22:32:38.299Z,5.10
2018-10-05T22:35:08.515Z,4.50
2018-10-05T22:37:38.846Z,5.00
2018-10-05T22:40:09.833Z,4.20
2018-10-05T22:42:41.597Z,4.23
2018-10-05T22:45:12.081Z,5.10
2018-10-05T22:47:42.330Z,10.83
2018-10-05T22:50:12.502Z,8.40
2018-10-05T22:52:42.827Z,5.30
2018-10-05T22:55:12.867Z,5.17
2018-10-05T22:57:43.284Z,5.30
2018-10-05T23:00:13.346Z,4.80
2018-10-05T23:02:43.172Z,4.73
2018-10-05T23:05:13.003Z,4.53
2018-10-05T23:07:42.980Z,4.37
2018-10-05T23:10:13.207Z,4.57
2018-10-05T23:12:43.164Z,4.47
2018-10-05T23:15:13.779Z,4.70
2018-10-05T23:17:44.569Z,4.30
2018-10-05T23:20:14.671Z,4.53
2018-10-05T23:22:44.546Z,4.23
2018-10-05T23:25:15.121Z,4.80
2018-10-05T23:27:45.649Z,4.73
2018-10-05T23:30:16.327Z,4.73
2018-10-05T23:32:46.764Z,5.00
2018-10-05T23:35:16.610Z,4.90
2018-10-05T23:37:46.423Z,5.00
2018-10-05T23:40:16.381Z,4.60
2018-10-05T23:42:46.271Z,5.30
2018-10-05T23:45:16.300Z,5.17
2018-10-05T23:47:47.134Z,4.80
2018-10-05T23:50:17.270Z,5.13
2018-10-05T23:52:49.185Z,4.80
2018-10-05T23:55:19.809Z,5.30
2018-10-05T23:57:50.345Z,5.43
